Accueil
METAR-TAF:

METAR-TAF

Aéroports :

Aéroport international de Norwich

Norwich, Angleterre

latitude: 52-38N, longitude: 001-18E, altitude: 14 m

Observation

Le bulletin a été fait il y a 16 minutes, à 06:20 UTC
Vent 1 kt de direction variable
Température 5°C
Humidité 81%
Pression 1033 hPa
Visibilité 10 km ou plus
Ciel couvert à une hauteur de 1800 ft

METAR: EGSH 240620Z VRB01KT 9999 OVC018 05/02 Q1033 NOSIG

Heure: 06:36 (06:36 UTC)

Prévision

Le bulletin a été fait il y a 1 heure et 40 minutes, à 04:56 UTC
Prévision valable du 24 à 06 UTC au 24 à 15 UTC
Vent 5 kt de sud/sud-ouest
Visibilité 10 km ou plus
Nuages fragmentés à une hauteur de 2000 ft
Probabilité 30% :
Temporairement
du 24 à 06 UTC au 24 à 15 UTC
Visibilité: 9000 m
Probabilité 30% :
Temporairement
du 24 à 06 UTC au 24 à 12 UTC
Nuages fragmentés à une hauteur de 1200 ft

TAF: EGSH 240456Z 2406/2415 20005KT 9999 BKN020 PROB30 TEMPO 2406/2415 9000 PROB30 TEMPO 2406/2412 BKN012

Observations et prévisions météorologiques de plus de 4000 aéroports (messages METAR et TAF).

Les stations disponibles sont représentées par des disques jaunes et rouges sur la carte.

Passer la souris dessus pour voir le nom de la station.

Cliquer dessus pour voir les observations et prévisions météorologiques.

Pour changer de carte: cliquez sur les boutons verts avec une croix noire pour zoomer, sur le bouton vert avec un tiret pour effectuer un zoom arrière, ou sur les flèches vertes pour les cartes adjacentes.


METAR-TAF: